Terminal Aerodrome Forecast
Issued by NWS

Home | Current Version | Previous Version | Text Only | Print | Product List | Glossary On
Versions: 1 2 3 4 5 6 7 8 9 10 11 12 13 14 15 16 17 18 19 20
000
FTUS43 KDTX 301730
TAFDET
TAF
KDET 301730Z 3018/3118 23007KT P6SM BKN045
      TEMPO 3018/3020 BKN030 OVC045
     FM310200 23005KT P6SM SKC
     FM311000 VRB03KT 3SM BR SKC
     FM311600 25005KT P6SM FEW045=

USA.gov is the U.S. government's official web portal to all federal, state and local government web resources and services.